Time;durP1;ratioP1;P1;durP2;ratioP2;P2;SDS_P1;SDS_P2;PMS_P1;PMS_P2;Temp;Humidity;BMP_temperature;BMP_pressure;BME280_temperature;BME280_humidity;BME280_pressure;Samples;Min_cycle;Max_cycle;Signal;HPM_P1;HPM_P2
2021/07/26 00:02:00;;;;;;;6.90;5.70;;;17.80;99.90;;;;;;4944719;28;20567;-75
2021/07/26 00:04:27;;;;;;;7.43;5.60;;;17.70;99.90;;;;;;4931764;28;20582;-75
2021/07/26 00:06:54;;;;;;;10.55;5.03;;;17.70;99.90;;;;;;4929686;29;20054;-75
2021/07/26 00:09:21;;;;;;;10.00;6.03;;;17.60;99.90;;;;;;4928643;29;20063;-75
2021/07/26 00:11:48;;;;;;;9.02;5.63;;;17.70;99.90;;;;;;4945418;28;20075;-75
2021/07/26 00:14:15;;;;;;;11.73;5.82;;;17.70;99.90;;;;;;4967395;28;20063;-76
2021/07/26 00:16:42;;;;;;;13.40;6.10;;;17.40;99.90;;;;;;4964445;28;20088;-75
2021/07/26 00:19:09;;;;;;;13.52;5.55;;;17.30;99.90;;;;;;4928666;28;20053;-75
2021/07/26 00:21:35;;;;;;;8.23;6.03;;;17.30;99.90;;;;;;4945813;28;20051;-75
2021/07/26 00:24:02;;;;;;;9.20;5.68;;;17.40;99.90;;;;;;4962043;28;20091;-75
2021/07/26 00:26:29;;;;;;;8.38;6.07;;;17.40;99.90;;;;;;4956088;28;20062;-75
2021/07/26 00:28:56;;;;;;;7.45;5.82;;;17.40;99.90;;;;;;4963858;28;20082;-75
2021/07/26 00:31:23;;;;;;;8.77;5.85;;;17.40;99.90;;;;;;4962818;28;20057;-75
2021/07/26 00:34:09;;;;;;;7.65;5.55;;;17.30;99.90;;;;;;4942295;28;20614;-75
2021/07/26 00:36:41;;;;;;;8.57;6.45;;;17.20;99.90;;;;;;4963091;28;20059;-75
2021/07/26 00:39:10;;;;;;;8.02;5.97;;;17.20;99.90;;;;;;4931173;28;20089;-75
2021/07/26 00:41:38;;;;;;;6.10;5.35;;;17.20;99.90;;;;;;4936271;28;20147;-74
2021/07/26 00:44:05;;;;;;;6.63;5.82;;;16.90;99.90;;;;;;4947840;28;20166;-75
2021/07/26 00:46:32;;;;;;;9.68;5.82;;;16.70;99.90;;;;;;4966750;28;20136;-75
2021/07/26 00:49:03;;;;;;;12.73;6.63;;;16.60;99.90;;;;;;4943947;28;20066;-75
2021/07/26 00:51:31;;;;;;;9.52;6.22;;;16.60;99.90;;;;;;4962644;28;20431;-75
2021/07/26 00:53:58;;;;;;;8.05;6.45;;;16.60;99.90;;;;;;4963062;28;20531;-75
2021/07/26 00:56:25;;;;;;;9.85;6.70;;;16.60;99.90;;;;;;4939361;28;20042;-75
2021/07/26 00:58:52;;;;;;;10.43;6.68;;;16.60;99.90;;;;;;4943660;29;20043;-75
2021/07/26 01:01:19;;;;;;;10.43;6.65;;;16.60;99.90;;;;;;4944414;28;20059;-75
2021/07/26 01:03:46;;;;;;;10.93;7.25;;;16.50;99.90;;;;;;4912422;29;20097;-76
2021/07/26 01:06:13;;;;;;;10.93;7.00;;;16.40;99.90;;;;;;4944176;28;20047;-75
2021/07/26 01:08:41;;;;;;;13.70;6.05;;;16.30;99.90;;;;;;4964917;28;20113;-75
2021/07/26 01:11:08;;;;;;;14.48;7.13;;;16.30;99.90;;;;;;4965462;28;20047;-75
2021/07/26 01:13:35;;;;;;;8.75;6.65;;;16.20;99.90;;;;;;4931900;28;20051;-75
2021/07/26 01:16:04;;;;;;;10.43;7.15;;;16.10;99.90;;;;;;4963275;28;20504;-74
2021/07/26 01:18:35;;;;;;;8.50;6.30;;;16.10;99.90;;;;;;4964075;28;20054;-75
2021/07/26 01:21:07;;;;;;;12.18;6.63;;;16.20;99.90;;;;;;4959281;28;20050;-75
2021/07/26 01:23:38;;;;;;;10.18;7.07;;;16.30;99.90;;;;;;4933289;28;20743;-74
2021/07/26 01:26:07;;;;;;;11.13;7.85;;;16.20;99.90;;;;;;4927072;28;20055;-75
2021/07/26 01:28:40;;;;;;;11.68;7.32;;;16.20;99.90;;;;;;4960227;28;20055;-75
2021/07/26 01:31:07;;;;;;;10.63;6.80;;;16.10;99.90;;;;;;4912384;28;20508;-75
2021/07/26 01:33:34;;;;;;;11.73;6.75;;;16.00;99.90;;;;;;4932320;28;20143;-74
2021/07/26 01:36:01;;;;;;;9.20;7.80;;;15.90;99.90;;;;;;4946629;28;20050;-75
2021/07/26 01:38:28;;;;;;;9.30;6.70;;;15.90;99.90;;;;;;4946873;28;20133;-75
2021/07/26 01:41:04;;;;;;;9.30;6.93;;;15.80;99.90;;;;;;4946963;28;20043;-75
2021/07/26 01:43:32;;;;;;;11.52;6.97;;;15.80;99.90;;;;;;4953834;28;20467;-74
2021/07/26 01:46:17;;;;;;;10.55;6.95;;;15.80;99.90;;;;;;4964284;28;20125;-75
2021/07/26 01:48:52;;;;;;;11.80;6.97;;;15.80;99.90;;;;;;4960057;28;20133;-74
2021/07/26 01:51:42;;;;;;;11.07;7.60;;;15.80;99.90;;;;;;4949766;28;20047;-74
2021/07/26 01:54:09;;;;;;;10.02;6.72;;;15.70;99.90;;;;;;4936238;28;20121;-75
2021/07/26 01:56:36;;;;;;;13.35;7.53;;;15.50;99.90;;;;;;4941935;28;20700;-75
2021/07/26 01:59:04;;;;;;;9.38;7.35;;;15.50;99.90;;;;;;4950247;28;20642;-75
2021/07/26 02:01:30;;;;;;;11.25;7.38;;;15.40;99.90;;;;;;4966571;28;20153;-75
2021/07/26 02:03:58;;;;;;;13.32;7.65;;;15.40;99.90;;;;;;4966450;28;20084;-75
2021/07/26 02:06:26;;;;;;;10.80;7.22;;;15.40;99.90;;;;;;4967144;28;20142;-74
2021/07/26 02:08:53;;;;;;;10.27;7.20;;;15.30;99.90;;;;;;4950356;28;20145;-75
2021/07/26 02:11:23;;;;;;;11.85;8.00;;;15.30;99.90;;;;;;4966466;28;20527;-75
2021/07/26 02:13:53;;;;;;;11.20;8.38;;;15.20;99.90;;;;;;4934813;28;20109;-75
2021/07/26 02:16:23;;;;;;;13.07;7.53;;;15.20;99.90;;;;;;4966338;28;20077;-75
2021/07/26 02:18:50;;;;;;;14.70;7.97;;;15.20;99.90;;;;;;4932568;28;20113;-75
2021/07/26 02:21:17;;;;;;;11.98;8.68;;;15.20;99.90;;;;;;4932887;28;20521;-75
2021/07/26 02:23:44;;;;;;;15.25;8.55;;;15.20;99.90;;;;;;4965310;28;20058;-75
2021/07/26 02:26:11;;;;;;;13.10;8.15;;;15.20;99.90;;;;;;4953818;28;20254;-75
2021/07/26 02:28:38;;;;;;;11.70;8.50;;;15.10;99.90;;;;;;4947220;29;20059;-75
2021/07/26 02:31:05;;;;;;;16.23;8.93;;;15.00;99.90;;;;;;4948424;28;20090;-75
2021/07/26 02:33:32;;;;;;;11.88;8.65;;;14.90;99.90;;;;;;4947378;28;20504;-74
2021/07/26 02:35:59;;;;;;;12.88;8.35;;;15.00;99.90;;;;;;4951274;28;20046;-74
2021/07/26 02:38:26;;;;;;;13.05;8.55;;;15.10;99.90;;;;;;4946361;28;20448;-74
2021/07/26 02:40:53;;;;;;;13.75;7.53;;;15.20;99.90;;;;;;4962701;28;20532;-75
2021/07/26 02:43:20;;;;;;;9.88;8.40;;;15.00;99.90;;;;;;4966791;28;20051;-74
2021/07/26 02:45:50;;;;;;;12.50;8.50;;;15.10;99.90;;;;;;4960423;28;20047;-74
2021/07/26 02:48:16;;;;;;;10.60;8.27;;;15.00;99.90;;;;;;4967371;28;20054;-76
2021/07/26 02:50:43;;;;;;;11.88;9.10;;;15.00;99.90;;;;;;4962021;28;20359;-76
2021/07/26 02:53:14;;;;;;;10.82;8.15;;;15.00;99.90;;;;;;4960584;28;20166;-76
2021/07/26 02:55:41;;;;;;;18.13;9.50;;;14.80;99.90;;;;;;4954772;28;20126;-76
2021/07/26 02:58:08;;;;;;;14.23;9.00;;;14.90;99.90;;;;;;4942761;28;20098;-76
2021/07/26 03:00:35;;;;;;;16.00;8.48;;;15.00;99.90;;;;;;4929167;29;20070;-76
2021/07/26 03:03:02;;;;;;;14.23;8.27;;;15.00;99.90;;;;;;4945348;28;20500;-75
2021/07/26 03:05:33;;;;;;;12.45;8.80;;;14.90;99.90;;;;;;4914060;29;20547;-76
2021/07/26 03:08:00;;;;;;;15.48;8.93;;;14.70;99.90;;;;;;4924866;28;20077;-76
2021/07/26 03:10:27;;;;;;;14.48;8.63;;;14.80;99.90;;;;;;4949323;28;20141;-75
2021/07/26 03:12:54;;;;;;;12.77;7.57;;;14.80;99.90;;;;;;4949430;28;20146;-76
2021/07/26 03:15:21;;;;;;;10.73;7.30;;;14.70;99.90;;;;;;4932629;28;20082;-76
2021/07/26 03:17:52;;;;;;;12.27;6.75;;;14.70;99.90;;;;;;4963712;28;20431;-73
2021/07/26 03:20:19;;;;;;;11.38;7.55;;;14.60;99.90;;;;;;4937198;29;20130;-76
2021/07/26 03:23:02;;;;;;;10.85;7.35;;;14.50;99.90;;;;;;4897005;29;20101;-74
2021/07/26 03:25:32;;;;;;;15.93;8.10;;;14.50;99.90;;;;;;4953916;28;20389;-74
2021/07/26 03:28:01;;;;;;;17.67;8.25;;;14.60;99.90;;;;;;4932265;28;20054;-75
2021/07/26 03:30:28;;;;;;;9.70;7.25;;;14.50;99.90;;;;;;4932670;28;20121;-75
2021/07/26 03:32:55;;;;;;;13.63;9.30;;;14.60;99.90;;;;;;4947874;28;20062;-76
2021/07/26 03:35:24;;;;;;;11.43;7.57;;;14.60;99.90;;;;;;4928693;29;20516;-76
2021/07/26 03:37:52;;;;;;;11.48;8.07;;;14.50;99.90;;;;;;4946396;28;20066;-75
2021/07/26 03:40:20;;;;;;;11.63;7.93;;;14.50;99.90;;;;;;4929175;28;20537;-75
2021/07/26 03:42:48;;;;;;;14.93;8.88;;;14.50;99.90;;;;;;4944562;29;20407;-75
2021/07/26 03:45:16;;;;;;;11.13;8.70;;;14.50;99.90;;;;;;4946490;29;20135;-75
2021/07/26 03:47:44;;;;;;;13.57;9.00;;;14.60;99.90;;;;;;4954463;28;20054;-75
2021/07/26 03:50:13;;;;;;;11.82;8.50;;;14.70;99.90;;;;;;4949658;28;20089;-73
2021/07/26 03:52:44;;;;;;;13.65;8.63;;;14.70;99.90;;;;;;4963975;28;20066;-75
2021/07/26 03:55:13;;;;;;;14.60;8.98;;;14.70;99.90;;;;;;4952496;28;20078;-75
2021/07/26 03:57:40;;;;;;;15.13;9.40;;;14.70;99.90;;;;;;4952070;28;20271;-75
2021/07/26 04:00:08;;;;;;;12.90;9.15;;;14.70;99.90;;;;;;4942484;28;20068;-74
2021/07/26 04:02:39;;;;;;;15.70;9.77;;;14.60;99.90;;;;;;4965867;28;20061;-75
2021/07/26 04:05:11;;;;;;;16.45;9.25;;;14.70;99.90;;;;;;4964931;28;20142;-76
2021/07/26 04:07:39;;;;;;;12.23;8.63;;;14.60;99.90;;;;;;4932454;28;20074;-76
2021/07/26 04:10:09;;;;;;;11.25;8.25;;;14.60;99.90;;;;;;4947611;28;20047;-75
2021/07/26 04:12:36;;;;;;;10.20;7.78;;;14.60;99.90;;;;;;4947664;28;20475;-75
2021/07/26 04:15:09;;;;;;;12.50;8.88;;;14.60;99.90;;;;;;4946844;28;20054;-75
2021/07/26 04:17:36;;;;;;;11.38;8.65;;;14.50;99.90;;;;;;4963192;28;20141;-75
2021/07/26 04:20:04;;;;;;;17.63;10.23;;;14.40;99.90;;;;;;4965411;28;20407;-76
2021/07/26 04:22:31;;;;;;;13.15;9.68;;;14.50;99.90;;;;;;4946051;28;20055;-75
2021/07/26 04:24:58;;;;;;;18.73;9.88;;;14.50;99.90;;;;;;4942346;28;20089;-76
2021/07/26 04:27:26;;;;;;;26.42;10.23;;;14.60;99.90;;;;;;4942973;28;20142;-76
2021/07/26 04:29:54;;;;;;;16.83;9.90;;;14.60;99.90;;;;;;4947592;28;20050;-75
2021/07/26 04:32:21;;;;;;;13.68;8.32;;;14.50;99.90;;;;;;4946303;28;20089;-75
2021/07/26 04:34:48;;;;;;;17.23;9.73;;;14.70;99.90;;;;;;4947436;28;20158;-75
2021/07/26 04:37:15;;;;;;;14.05;9.27;;;14.80;99.90;;;;;;4898670;28;20050;-75
2021/07/26 04:39:46;;;;;;;13.05;8.88;;;14.80;99.90;;;;;;4958062;28;20051;-75
2021/07/26 04:42:13;;;;;;;14.15;8.85;;;14.80;99.90;;;;;;4944391;29;20269;-75
2021/07/26 04:44:40;;;;;;;12.77;8.90;;;14.90;99.90;;;;;;4930968;28;20043;-75
2021/07/26 04:47:08;;;;;;;10.65;7.65;;;15.20;99.90;;;;;;4899661;29;20061;-75
2021/07/26 04:49:35;;;;;;;10.68;8.15;;;15.20;99.90;;;;;;4954484;28;20431;-75
2021/07/26 04:52:02;;;;;;;12.50;8.55;;;15.40;99.90;;;;;;4927434;28;20051;-75
2021/07/26 04:54:29;;;;;;;10.70;7.05;;;15.50;99.90;;;;;;4934454;28;20085;-75
2021/07/26 04:56:56;;;;;;;11.23;7.97;;;15.40;99.90;;;;;;4943585;28;20405;-75
2021/07/26 04:59:23;;;;;;;9.75;7.80;;;15.50;99.90;;;;;;4934616;28;20077;-75
2021/07/26 05:01:50;;;;;;;10.18;8.50;;;15.60;99.90;;;;;;4930793;28;20043;-75
2021/07/26 05:04:17;;;;;;;11.23;7.63;;;15.70;99.90;;;;;;4947679;28;20059;-75
2021/07/26 05:06:45;;;;;;;10.70;7.63;;;16.00;99.90;;;;;;4915329;28;20078;-75
2021/07/26 05:09:13;;;;;;;8.70;6.93;;;16.10;99.90;;;;;;4962604;28;20130;-75
2021/07/26 05:11:43;;;;;;;9.93;6.63;;;16.20;99.90;;;;;;4963219;28;20443;-76
2021/07/26 05:14:11;;;;;;;8.70;5.82;;;16.20;99.90;;;;;;4931870;28;20235;-75
2021/07/26 05:16:39;;;;;;;10.02;6.25;;;16.20;99.90;;;;;;4961065;28;20145;-75
2021/07/26 05:19:06;;;;;;;10.52;6.93;;;16.30;99.90;;;;;;4947322;28;20049;-75
2021/07/26 05:21:33;;;;;;;9.48;6.35;;;16.40;99.90;;;;;;4913908;28;20375;-76
2021/07/26 05:24:00;;;;;;;10.18;7.47;;;16.50;99.90;;;;;;4929461;28;20162;-75
2021/07/26 05:26:28;;;;;;;7.68;6.82;;;16.50;99.90;;;;;;4939893;28;20050;-75
2021/07/26 05:28:55;;;;;;;8.77;6.72;;;16.60;99.90;;;;;;4949314;28;20101;-75
2021/07/26 05:31:22;;;;;;;10.63;7.70;;;16.80;99.90;;;;;;4933471;28;20069;-75
2021/07/26 05:33:49;;;;;;;10.68;7.30;;;16.80;99.90;;;;;;4945439;29;20134;-76
2021/07/26 05:36:16;;;;;;;9.93;7.18;;;16.80;99.90;;;;;;4931108;29;20051;-75
2021/07/26 05:38:43;;;;;;;12.45;7.25;;;16.80;99.90;;;;;;4900557;29;20520;-76
2021/07/26 05:41:10;;;;;;;9.68;6.70;;;16.80;99.90;;;;;;4931054;29;20051;-76
2021/07/26 05:43:37;;;;;;;11.93;6.97;;;16.80;99.90;;;;;;4930369;29;20146;-75
2021/07/26 05:46:04;;;;;;;10.05;6.97;;;17.00;99.90;;;;;;4948060;29;20059;-75
2021/07/26 05:48:31;;;;;;;8.07;6.40;;;17.10;99.90;;;;;;4947911;29;20632;-76
2021/07/26 05:50:58;;;;;;;8.07;6.05;;;17.30;99.90;;;;;;4930680;28;20051;-76
2021/07/26 05:53:25;;;;;;;8.48;6.38;;;17.40;99.90;;;;;;4950409;28;20474;-76
2021/07/26 05:55:52;;;;;;;10.02;7.30;;;17.70;99.90;;;;;;4968040;28;20054;-76
2021/07/26 05:58:19;;;;;;;11.43;6.70;;;17.80;99.90;;;;;;4966228;28;20061;-75
2021/07/26 06:00:56;;;;;;;8.57;6.82;;;17.90;99.90;;;;;;4949707;28;20043;-76
2021/07/26 06:03:24;;;;;;;7.15;5.93;;;18.00;99.90;;;;;;4966684;28;20069;-76
2021/07/26 06:05:51;;;;;;;11.98;6.68;;;18.10;99.90;;;;;;4950217;28;20437;-76
2021/07/26 06:08:18;;;;;;;10.90;5.80;;;18.40;99.90;;;;;;4950601;28;20121;-76
2021/07/26 06:10:45;;;;;;;8.20;5.93;;;18.60;99.90;;;;;;4965811;28;20049;-76
2021/07/26 06:13:12;;;;;;;7.13;5.68;;;18.60;99.90;;;;;;4967857;28;20051;-76
2021/07/26 06:16:33;;;;;;;7.00;5.88;;;18.80;99.90;;;;;;4966763;28;20051;-79
2021/07/26 06:19:07;;;;;;;6.78;5.50;;;19.10;99.90;;;;;;4940717;28;20055;-88
2021/07/26 06:21:34;;;;;;;6.85;6.03;;;19.50;99.90;;;;;;4925264;28;20054;-87
2021/07/26 06:24:01;;;;;;;7.07;6.38;;;20.00;99.90;;;;;;4957757;28;20500;-87
2021/07/26 06:26:28;;;;;;;7.60;6.55;;;20.20;99.90;;;;;;4948920;28;20047;-88
2021/07/26 06:28:55;;;;;;;6.60;6.03;;;20.50;99.90;;;;;;4936463;29;20074;-88
2021/07/26 06:31:27;;;;;;;8.35;6.20;;;20.70;99.90;;;;;;4969393;28;20142;-89
2021/07/26 06:33:54;;;;;;;7.25;6.53;;;20.80;99.90;;;;;;4949416;29;20070;-87
2021/07/26 06:36:21;;;;;;;8.85;6.22;;;20.90;99.90;;;;;;4938936;29;20056;-89
2021/07/26 06:38:48;;;;;;;7.15;6.45;;;21.10;99.90;;;;;;4951949;28;20512;-87
2021/07/26 06:41:15;;;;;;;6.80;6.20;;;21.00;99.90;;;;;;4957739;28;20199;-87
2021/07/26 06:43:42;;;;;;;7.13;6.38;;;21.10;99.90;;;;;;4942014;28;20142;-89
2021/07/26 06:46:09;;;;;;;7.63;6.82;;;21.20;99.90;;;;;;4925854;28;20146;-87
2021/07/26 06:48:36;;;;;;;7.22;6.53;;;21.30;99.90;;;;;;4927045;28;20050;-87
2021/07/26 06:51:04;;;;;;;7.93;7.13;;;21.30;99.90;;;;;;4943691;28;20142;-88
2021/07/26 06:53:34;;;;;;;7.53;6.82;;;21.40;99.90;;;;;;4928796;28;20058;-87
2021/07/26 06:56:06;;;;;;;9.27;7.47;;;21.50;99.90;;;;;;4943957;28;20079;-87
2021/07/26 06:58:34;;;;;;;8.88;7.50;;;21.60;99.90;;;;;;4965870;28;20051;-91
2021/07/26 07:01:05;;;;;;;10.10;8.60;;;21.90;99.90;;;;;;4992828;28;20119;-91
2021/07/26 07:03:33;;;;;;;8.60;7.90;;;21.90;99.90;;;;;;4960939;28;20058;-90
2021/07/26 07:06:11;;;;;;;8.38;7.78;;;21.90;99.90;;;;;;4976869;28;20131;-92
2021/07/26 07:08:39;;;;;;;8.70;7.80;;;21.80;99.90;;;;;;4978286;28;20078;-91
2021/07/26 07:11:14;;;;;;;9.57;8.68;;;21.80;99.90;;;;;;4961579;28;20167;-92
2021/07/26 07:13:42;;;;;;;;;;;22.10;99.90;;;;;;4977779;28;20059;-93
2021/07/26 07:16:10;;;;;;;11.20;9.80;;;22.60;99.90;;;;;;4961086;28;19933;-91
2021/07/26 07:18:38;;;;;;;10.75;10.15;;;23.00;99.90;;;;;;4982171;28;20122;-91
2021/07/26 07:21:05;;;;;;;11.40;10.50;;;23.20;99.90;;;;;;4990986;28;20082;-86
2021/07/26 07:23:32;;;;;;;11.05;10.35;;;23.30;99.90;;;;;;4948495;28;20068;-88
2021/07/26 07:26:00;;;;;;;11.35;10.68;;;23.60;99.90;;;;;;4950911;28;20058;-88
2021/07/26 07:28:27;;;;;;;12.88;12.02;;;23.60;99.90;;;;;;4961553;28;20139;-88
2021/07/26 07:30:54;;;;;;;11.88;11.20;;;23.30;99.90;;;;;;4947284;28;20492;-87
2021/07/26 07:33:22;;;;;;;12.52;11.73;;;23.80;99.90;;;;;;4931374;29;20043;-87
2021/07/26 07:35:49;;;;;;;12.27;11.57;;;24.30;99.90;;;;;;4943667;29;20040;-87
2021/07/26 07:38:18;;;;;;;12.48;11.57;;;24.70;99.90;;;;;;4961333;29;20472;-87
2021/07/26 07:40:46;;;;;;;13.25;12.40;;;25.20;99.90;;;;;;4957949;28;20043;-84
2021/07/26 07:43:13;;;;;;;13.30;12.38;;;25.30;99.90;;;;;;4943173;29;20047;-87
2021/07/26 07:45:40;;;;;;;12.77;11.93;;;25.10;99.90;;;;;;4960200;29;20047;-87
2021/07/26 07:48:08;;;;;;;12.43;11.70;;;25.50;99.90;;;;;;4966377;28;20231;-90
2021/07/26 07:50:35;;;;;;;13.63;12.70;;;25.50;99.90;;;;;;4972464;28;20046;-88
2021/07/26 07:53:03;;;;;;;13.18;12.38;;;25.80;99.90;;;;;;4957122;28;20054;-91
2021/07/26 07:55:36;;;;;;;12.95;12.15;;;25.90;99.90;;;;;;4968454;28;20038;-90
2021/07/26 07:58:05;;;;;;;11.82;11.07;;;25.80;99.90;;;;;;4961224;28;20081;-89
2021/07/26 08:00:32;;;;;;;12.38;11.60;;;25.80;99.90;;;;;;4959834;28;20038;-90
2021/07/26 08:03:00;;;;;;;12.35;11.48;;;25.60;99.90;;;;;;4961453;28;20074;-88
2021/07/26 08:05:28;;;;;;;11.57;10.85;;;25.10;99.90;;;;;;4957566;28;20212;-89
2021/07/26 08:07:56;;;;;;;12.50;11.60;;;24.70;99.90;;;;;;4958823;28;20063;-90
2021/07/26 08:10:24;;;;;;;11.15;10.48;;;24.70;99.90;;;;;;4926959;28;20039;-91
2021/07/26 08:12:51;;;;;;;13.00;11.88;;;25.10;99.90;;;;;;4942615;28;20039;-88
2021/07/26 08:15:19;;;;;;;12.05;11.18;;;25.40;99.90;;;;;;4960122;28;20074;-87
2021/07/26 08:17:47;;;;;;;12.48;11.70;;;24.70;99.90;;;;;;4952546;28;20106;-87
2021/07/26 08:20:17;;;;;;;12.40;11.40;;;24.70;99.90;;;;;;4940834;28;20066;-87
2021/07/26 08:22:45;;;;;;;12.93;11.90;;;25.00;99.90;;;;;;4942042;28;20047;-87
2021/07/26 08:25:13;;;;;;;12.70;11.77;;;25.70;99.90;;;;;;4969629;28;20051;-87
2021/07/26 08:27:56;;;;;;;12.32;11.63;;;26.00;99.90;;;;;;4940833;28;20050;-85
2021/07/26 08:30:32;;;;;;;12.23;11.43;;;25.80;99.90;;;;;;4939782;28;20165;-86
2021/07/26 08:33:00;;;;;;;12.95;12.18;;;25.70;99.90;;;;;;4940094;28;20062;-87
2021/07/26 08:35:28;;;;;;;12.35;11.55;;;25.40;99.90;;;;;;4937346;29;20051;-87
2021/07/26 08:37:56;;;;;;;11.73;11.02;;;26.00;99.90;;;;;;4931941;28;20097;-87
2021/07/26 08:40:26;;;;;;;12.15;11.25;;;26.20;99.90;;;;;;4940271;28;20522;-87
2021/07/26 08:42:54;;;;;;;10.85;10.20;;;26.10;99.90;;;;;;4924684;28;20608;-87
2021/07/26 08:45:21;;;;;;;11.80;11.10;;;25.90;99.90;;;;;;4924519;28;20062;-89
2021/07/26 08:47:48;;;;;;;13.00;12.10;;;26.30;99.90;;;;;;4940326;28;20054;-87
2021/07/26 08:50:18;;;;;;;12.20;11.43;;;26.30;99.90;;;;;;4924431;28;20101;-85
2021/07/26 08:52:48;;;;;;;12.50;11.60;;;26.40;99.90;;;;;;4939070;28;20055;-86
2021/07/26 08:55:23;;;;;;;12.00;11.27;;;26.60;99.90;;;;;;4925066;28;20574;-86
2021/07/26 08:57:51;;;;;;;13.02;12.18;;;26.70;99.90;;;;;;4940544;28;20054;-86
2021/07/26 09:00:20;;;;;;;12.50;11.80;;;26.70;99.90;;;;;;4954441;28;20051;-86
2021/07/26 09:02:50;;;;;;;12.75;11.75;;;26.40;99.90;;;;;;4940586;28;20051;-87
2021/07/26 09:05:18;;;;;;;12.23;11.43;;;26.60;99.90;;;;;;4938756;28;20050;-87
2021/07/26 09:07:48;;;;;;;12.55;11.63;;;26.40;99.90;;;;;;4943909;28;20125;-86
2021/07/26 09:10:21;;;;;;;12.02;11.32;;;26.60;99.90;;;;;;4923541;28;20058;-88
2021/07/26 09:12:53;;;;;;;14.10;12.77;;;26.70;99.90;;;;;;4923544;28;20058;-88
2021/07/26 09:15:35;;;;;;;13.20;12.30;;;26.80;99.90;;;;;;4938872;28;20388;-87
2021/07/26 09:18:08;;;;;;;11.98;11.15;;;26.90;99.90;;;;;;4922794;28;20073;-88
2021/07/26 09:20:39;;;;;;;12.68;11.95;;;26.70;99.90;;;;;;4954575;28;20051;-87
2021/07/26 09:23:14;;;;;;;12.57;11.77;;;26.60;99.90;;;;;;4938823;28;20118;-87
2021/07/26 09:25:51;;;;;;;13.02;12.13;;;26.60;99.90;;;;;;4941654;28;20110;-87
2021/07/26 09:28:22;;;;;;;13.48;12.68;;;26.30;99.90;;;;;;4953254;28;20058;-87
2021/07/26 09:30:50;;;;;;;13.40;12.57;;;26.20;99.90;;;;;;4936943;28;20070;-88
2021/07/26 09:33:23;;;;;;;14.20;13.20;;;26.80;99.90;;;;;;4948541;28;20125;-87
2021/07/26 09:36:14;;;;;;;12.73;12.02;;;27.00;99.90;;;;;;4933302;28;20102;-86
2021/07/26 09:39:03;;;;;;;12.82;12.05;;;26.80;99.90;;;;;;4936003;29;20058;-86
2021/07/26 09:41:47;;;;;;;11.55;10.85;;;26.30;99.90;;;;;;4901479;29;20057;-87
2021/07/26 09:44:22;;;;;;;12.23;11.52;;;25.80;99.90;;;;;;4902891;29;20047;-86
2021/07/26 09:46:49;;;;;;;12.95;12.02;;;25.50;99.90;;;;;;4917604;29;20627;-86
2021/07/26 09:49:18;;;;;;;12.48;11.73;;;25.30;99.90;;;;;;4918794;29;20049;-86
2021/07/26 09:52:08;;;;;;;12.15;11.25;;;25.00;99.90;;;;;;4917952;29;20051;-87
2021/07/26 09:54:43;;;;;;;12.27;11.38;;;24.80;99.90;;;;;;4919042;28;20051;-86
2021/07/26 09:57:22;;;;;;;12.10;11.35;;;24.60;99.90;;;;;;4939807;29;20130;-86
2021/07/26 09:59:51;;;;;;;13.38;12.40;;;24.40;99.90;;;;;;4952720;28;20077;-87
2021/07/26 10:02:20;;;;;;;11.80;11.10;;;24.30;99.90;;;;;;4937730;28;20046;-86
2021/07/26 10:04:48;;;;;;;12.02;8.63;;;24.20;99.90;;;;;;4921738;28;20141;-89
2021/07/26 10:07:18;;;;;;;12.23;9.68;;;24.10;99.90;;;;;;4969369;28;20070;-86
2021/07/26 10:09:46;;;;;;;9.63;8.23;;;23.40;99.90;;;;;;4934181;28;20051;-86
2021/07/26 10:12:18;;;;;;;9.35;7.13;;;22.60;99.90;;;;;;4922539;28;20061;-87
2021/07/26 10:14:50;;;;;;;9.30;8.40;;;22.20;99.90;;;;;;4924624;28;20546;-88
2021/07/26 10:17:18;;;;;;;6.75;6.07;;;22.10;99.90;;;;;;4922440;28;20077;-88
2021/07/26 10:19:45;;;;;;;9.30;6.30;;;22.40;99.90;;;;;;4954953;28;20038;-87
2021/07/26 10:22:20;;;;;;;7.20;6.22;;;22.60;99.90;;;;;;4923387;28;20283;-88
2021/07/26 10:25:14;;;;;;;8.07;6.22;;;22.70;99.90;;;;;;4956042;28;20071;-89
2021/07/26 10:27:42;;;;;;;7.45;6.68;;;22.80;99.90;;;;;;4960890;28;20055;-89
2021/07/26 10:30:10;;;;;;;7.47;6.75;;;22.70;99.90;;;;;;4940722;28;20142;-90
2021/07/26 10:32:38;;;;;;;9.13;8.23;;;22.70;99.90;;;;;;4925604;28;20085;-91
2021/07/26 10:35:43;;;;;;;8.55;6.95;;;22.70;99.90;;;;;;4923625;28;20460;-90
2021/07/26 10:38:13;;;;;;;8.02;7.05;;;22.80;99.90;;;;;;4953120;29;20491;-91
2021/07/26 10:40:42;;;;;;;9.02;8.40;;;23.20;99.90;;;;;;4919264;29;20281;-76
2021/07/26 10:43:15;;;;;;;8.85;8.25;;;23.50;99.90;;;;;;4954947;28;20047;-78
2021/07/26 10:45:55;;;;;;;7.95;7.25;;;23.80;99.90;;;;;;4905932;28;20480;-77
2021/07/26 10:48:28;;;;;;;7.80;7.10;;;24.40;99.90;;;;;;4962681;28;20195;-84
2021/07/26 10:50:57;;;;;;;8.07;7.47;;;24.90;99.90;;;;;;4919792;28;20480;-82
2021/07/26 10:53:33;;;;;;;6.72;6.13;;;25.40;99.90;;;;;;4962842;28;20073;-78
2021/07/26 10:56:09;;;;;;;5.93;5.32;;;25.60;99.90;;;;;;4941417;28;20051;-77
2021/07/26 10:58:39;;;;;;;6.15;5.63;;;25.80;99.90;;;;;;4951596;28;20070;-78
2021/07/26 11:01:24;;;;;;;5.82;5.25;;;25.80;99.90;;;;;;4945386;28;20126;-79
2021/07/26 11:03:53;;;;;;;6.75;6.13;;;25.70;99.90;;;;;;4941139;28;20070;-84
2021/07/26 11:06:36;;;;;;;7.35;6.78;;;25.30;99.90;;;;;;4961957;28;20043;-79
2021/07/26 11:09:21;;;;;;;7.25;6.75;;;24.90;99.90;;;;;;4952986;28;20051;-78
2021/07/26 11:11:50;;;;;;;7.63;6.95;;;24.80;99.90;;;;;;4937608;29;20075;-82
2021/07/26 11:14:17;;;;;;;7.82;7.10;;;24.80;99.90;;;;;;4948023;29;20059;-80
2021/07/26 11:16:55;;;;;;;8.00;7.30;;;24.90;99.90;;;;;;4931279;29;20131;-82
2021/07/26 11:19:32;;;;;;;6.90;6.28;;;25.00;99.90;;;;;;4948614;29;20519;-81
2021/07/26 11:22:00;;;;;;;8.00;7.50;;;25.40;99.90;;;;;;4963095;28;20049;-79
2021/07/26 11:24:39;;;;;;;8.10;7.60;;;25.50;99.90;;;;;;4967968;28;20507;-80
2021/07/26 11:27:37;;;;;;;8.02;7.28;;;25.30;99.90;;;;;;4959588;28;20050;-80
2021/07/26 11:30:08;;;;;;;7.95;7.25;;;25.10;99.90;;;;;;4935474;28;20133;-79
2021/07/26 11:32:36;;;;;;;8.00;7.45;;;25.20;99.90;;;;;;4952441;28;20054;-78
2021/07/26 11:35:04;;;;;;;8.90;7.95;;;25.30;99.90;;;;;;4956518;28;20055;-80
2021/07/26 11:37:33;;;;;;;8.40;7.80;;;25.60;99.90;;;;;;4947525;28;20138;-78
2021/07/26 11:40:04;;;;;;;9.18;8.38;;;25.80;99.90;;;;;;4931342;29;20051;-80
2021/07/26 11:42:36;;;;;;;8.70;8.10;;;25.90;99.90;;;;;;4961773;28;20105;-80
2021/07/26 11:45:07;;;;;;;9.05;8.27;;;26.10;99.90;;;;;;4965187;28;20047;-81
2021/07/26 11:47:40;;;;;;;8.57;7.88;;;25.90;99.90;;;;;;4935234;28;20115;-80
2021/07/26 11:50:13;;;;;;;9.30;8.52;;;25.60;99.90;;;;;;4967151;28;20061;-80
2021/07/26 11:52:54;;;;;;;8.18;7.57;;;25.70;99.90;;;;;;4951054;28;20496;-80
2021/07/26 11:55:23;;;;;;;8.50;7.82;;;25.40;99.90;;;;;;4934060;28;20397;-80
2021/07/26 11:57:58;;;;;;;8.75;8.07;;;25.40;99.90;;;;;;4951296;28;20086;-79
2021/07/26 12:00:27;;;;;;;8.50;8.00;;;25.70;99.90;;;;;;4934200;28;20050;-80
2021/07/26 12:02:56;;;;;;;9.00;8.23;;;26.10;99.90;;;;;;4966497;28;20083;-79
2021/07/26 12:05:28;;;;;;;8.40;7.70;;;26.30;99.90;;;;;;4940823;28;20050;-80
2021/07/26 12:07:55;;;;;;;9.00;8.30;;;26.10;99.90;;;;;;4923824;28;20493;-79
2021/07/26 12:10:36;;;;;;;9.00;8.40;;;26.00;99.90;;;;;;4948381;28;20146;-79
2021/07/26 12:13:18;;;;;;;8.82;7.95;;;25.90;99.90;;;;;;4922051;28;20051;-80
2021/07/26 12:15:49;;;;;;;8.98;8.27;;;25.70;99.90;;;;;;4948035;28;20468;-80
2021/07/26 12:18:35;;;;;;;8.93;8.23;;;25.70;99.90;;;;;;4949085;28;20416;-80
2021/07/26 12:21:04;;;;;;;9.18;8.57;;;25.80;99.90;;;;;;4961340;28;20058;-79
2021/07/26 12:23:32;;;;;;;9.30;8.52;;;25.90;99.90;;;;;;4966616;28;20110;-80
2021/07/26 12:26:10;;;;;;;9.00;8.15;;;25.80;99.90;;;;;;4932430;28;20138;-80
2021/07/26 12:28:41;;;;;;;9.38;8.85;;;25.80;99.90;;;;;;4945160;28;20137;-81
2021/07/26 12:31:27;;;;;;;9.88;9.18;;;25.70;99.90;;;;;;4929621;28;20098;-81
2021/07/26 12:34:13;;;;;;;9.85;9.02;;;25.70;99.90;;;;;;4918768;28;20055;-81
2021/07/26 12:36:42;;;;;;;9.73;9.13;;;25.70;99.90;;;;;;4913835;29;20496;-81
2021/07/26 12:39:10;;;;;;;9.82;9.23;;;25.70;99.90;;;;;;4930651;29;20039;-81
2021/07/26 12:41:38;;;;;;;9.68;8.82;;;25.60;99.90;;;;;;4917182;28;20046;-80
2021/07/26 12:44:17;;;;;;;8.80;8.30;;;25.60;99.90;;;;;;4933479;28;20151;-80
2021/07/26 12:46:49;;;;;;;9.73;9.13;;;25.40;99.90;;;;;;4916967;28;20047;-80
2021/07/26 12:49:19;;;;;;;8.98;8.45;;;25.40;99.90;;;;;;4962769;28;20059;-80
2021/07/26 12:51:48;;;;;;;8.50;7.88;;;25.40;99.90;;;;;;4939397;28;20288;-81
2021/07/26 12:54:15;;;;;;;10.20;9.50;;;25.40;99.90;;;;;;4932332;28;20369;-80